CYQT

Thunder Bay Airport

Thunder Bay, , Canada
TAF CYQT 201338Z 2014/2102 VRB03KT P6SM FEW240 BECMG 2016/2018 12008KT RMK NXT FCST BY 202000Z
Issued Valid From Valid To
Apr-20 @ 13:38 UTC
(5 hours ago)
Apr-20 @ 14:00 UTC
(5 hours ago)
Apr-21 @ 02:00 UTC
(in 7 hours)
Expired Click to View Apr-20 @ 14:00 to Apr-20 @ 16:00
TAF CYQT 201338Z 2014/2102 VRB03KT P6SM FEW240
Wind Visibility Clouds
Variable at 3 knots Greater than 6 miles
  • Few at 24,000' AGL
Becoming Apr-20 @ 16:00 to Apr-21 @ 02:00
BECMG 2016/2018 12008KT RMK NXT FCST BY 202000Z
Wind Visibility Clouds
120° at 8 knots Greater than 6 miles
  • Few at 24,000' AGL
TAF CYQT 201338Z 2014/2102 VRB03KT P6SM FEW240 BECMG 2016/2018 12008KT RMK NXT FCST BY 202000Z
Issued Apr-20 @ 13:38 UTC
(5 hours ago)
Valid From Apr-20 @ 14:00 UTC
(5 hours ago)
Valid To Apr-21 @ 02:00 UTC
(in 7 hours)
Apr-20 @ 14:00 - Apr-20 @ 16:00
Wind Visibility
Variable at 3 knots Greater than 6 miles
Clouds
  • Few at 24,000' AGL
Becoming Apr-20 @ 16:00 - Apr-21 @ 02:00
Wind Visibility
120° at 8 knots Greater than 6 miles
Clouds
  • Few at 24,000' AGL